sensor_id;sensor_type;location;lat;lon;timestamp;P1;durP1;ratioP1;P2;durP2;ratioP2
12469;SDS011;36499;46.484;13.832;2023-01-29T00:01:35;10.97;;;7.13;;
12469;SDS011;36499;46.484;13.832;2023-01-29T00:04:04;9.37;;;6.37;;
12469;SDS011;36499;46.484;13.832;2023-01-29T00:06:31;8.53;;;6.03;;
12469;SDS011;36499;46.484;13.832;2023-01-29T00:08:58;10.50;;;6.40;;
12469;SDS011;36499;46.484;13.832;2023-01-29T00:11:25;8.67;;;5.93;;
12469;SDS011;36499;46.484;13.832;2023-01-29T00:13:52;8.90;;;6.20;;
12469;SDS011;36499;46.484;13.832;2023-01-29T00:16:19;8.37;;;5.50;;
12469;SDS011;36499;46.484;13.832;2023-01-29T00:18:46;8.63;;;5.83;;
12469;SDS011;36499;46.484;13.832;2023-01-29T00:21:15;10.43;;;6.87;;
12469;SDS011;36499;46.484;13.832;2023-01-29T00:23:46;10.10;;;6.87;;
12469;SDS011;36499;46.484;13.832;2023-01-29T00:26:14;9.10;;;6.40;;
12469;SDS011;36499;46.484;13.832;2023-01-29T00:28:42;8.53;;;6.43;;
12469;SDS011;36499;46.484;13.832;2023-01-29T00:31:10;7.77;;;6.43;;
12469;SDS011;36499;46.484;13.832;2023-01-29T00:33:40;10.70;;;6.80;;
12469;SDS011;36499;46.484;13.832;2023-01-29T00:36:08;9.23;;;6.53;;
12469;SDS011;36499;46.484;13.832;2023-01-29T00:38:38;8.87;;;6.33;;
12469;SDS011;36499;46.484;13.832;2023-01-29T00:41:06;9.43;;;6.53;;
12469;SDS011;36499;46.484;13.832;2023-01-29T00:43:51;7.67;;;5.67;;
12469;SDS011;36499;46.484;13.832;2023-01-29T00:46:36;9.27;;;5.93;;
12469;SDS011;36499;46.484;13.832;2023-01-29T00:49:03;9.43;;;6.27;;
12469;SDS011;36499;46.484;13.832;2023-01-29T00:51:32;10.40;;;6.70;;
12469;SDS011;36499;46.484;13.832;2023-01-29T00:54:00;8.53;;;5.63;;
12469;SDS011;36499;46.484;13.832;2023-01-29T00:56:29;9.97;;;6.30;;
12469;SDS011;36499;46.484;13.832;2023-01-29T00:58:56;9.97;;;6.43;;
12469;SDS011;36499;46.484;13.832;2023-01-29T01:01:23;10.57;;;6.97;;
12469;SDS011;36499;46.484;13.832;2023-01-29T01:04:04;9.83;;;6.37;;
12469;SDS011;36499;46.484;13.832;2023-01-29T01:06:32;12.37;;;7.20;;
12469;SDS011;36499;46.484;13.832;2023-01-29T01:09:00;9.17;;;6.47;;
12469;SDS011;36499;46.484;13.832;2023-01-29T01:11:45;8.97;;;6.30;;
12469;SDS011;36499;46.484;13.832;2023-01-29T01:14:12;8.43;;;6.00;;
12469;SDS011;36499;46.484;13.832;2023-01-29T01:16:39;8.73;;;6.10;;
12469;SDS011;36499;46.484;13.832;2023-01-29T01:19:06;7.40;;;5.37;;
12469;SDS011;36499;46.484;13.832;2023-01-29T01:21:33;8.87;;;5.57;;
12469;SDS011;36499;46.484;13.832;2023-01-29T01:24:02;7.97;;;5.97;;
12469;SDS011;36499;46.484;13.832;2023-01-29T01:26:30;8.63;;;6.20;;
12469;SDS011;36499;46.484;13.832;2023-01-29T01:28:57;9.67;;;6.40;;
12469;SDS011;36499;46.484;13.832;2023-01-29T01:31:25;8.87;;;5.93;;
12469;SDS011;36499;46.484;13.832;2023-01-29T01:33:52;9.27;;;6.13;;
12469;SDS011;36499;46.484;13.832;2023-01-29T01:36:20;8.50;;;5.53;;
12469;SDS011;36499;46.484;13.832;2023-01-29T01:38:47;9.53;;;5.73;;
12469;SDS011;36499;46.484;13.832;2023-01-29T01:41:17;10.20;;;5.50;;
12469;SDS011;36499;46.484;13.832;2023-01-29T01:43:50;7.90;;;5.90;;
12469;SDS011;36499;46.484;13.832;2023-01-29T01:46:21;8.73;;;5.93;;
12469;SDS011;36499;46.484;13.832;2023-01-29T01:48:50;11.07;;;6.13;;
12469;SDS011;36499;46.484;13.832;2023-01-29T01:51:28;8.23;;;5.60;;
12469;SDS011;36499;46.484;13.832;2023-01-29T01:54:00;6.90;;;5.33;;
12469;SDS011;36499;46.484;13.832;2023-01-29T01:56:35;8.87;;;5.63;;
12469;SDS011;36499;46.484;13.832;2023-01-29T01:59:09;7.60;;;6.20;;
12469;SDS011;36499;46.484;13.832;2023-01-29T02:01:42;10.27;;;7.07;;
12469;SDS011;36499;46.484;13.832;2023-01-29T02:04:15;9.33;;;5.57;;
12469;SDS011;36499;46.484;13.832;2023-01-29T02:07:04;9.33;;;6.00;;
12469;SDS011;36499;46.484;13.832;2023-01-29T02:09:54;12.30;;;7.20;;
12469;SDS011;36499;46.484;13.832;2023-01-29T02:12:31;10.03;;;6.50;;
12469;SDS011;36499;46.484;13.832;2023-01-29T02:15:00;8.73;;;6.07;;
12469;SDS011;36499;46.484;13.832;2023-01-29T02:17:28;10.40;;;6.13;;
12469;SDS011;36499;46.484;13.832;2023-01-29T02:19:58;7.90;;;5.93;;
12469;SDS011;36499;46.484;13.832;2023-01-29T02:22:50;7.23;;;5.00;;
12469;SDS011;36499;46.484;13.832;2023-01-29T02:26:00;8.70;;;4.27;;
12469;SDS011;36499;46.484;13.832;2023-01-29T02:29:18;6.43;;;4.37;;
12469;SDS011;36499;46.484;13.832;2023-01-29T02:32:03;6.07;;;4.63;;
12469;SDS011;36499;46.484;13.832;2023-01-29T02:34:47;5.73;;;4.50;;
12469;SDS011;36499;46.484;13.832;2023-01-29T02:37:44;6.27;;;4.10;;
12469;SDS011;36499;46.484;13.832;2023-01-29T02:40:22;7.03;;;3.90;;
12469;SDS011;36499;46.484;13.832;2023-01-29T02:43:00;6.03;;;4.30;;
12469;SDS011;36499;46.484;13.832;2023-01-29T02:45:39;8.10;;;4.40;;
12469;SDS011;36499;46.484;13.832;2023-01-29T02:48:17;7.07;;;4.80;;
12469;SDS011;36499;46.484;13.832;2023-01-29T02:50:50;6.53;;;4.37;;
12469;SDS011;36499;46.484;13.832;2023-01-29T02:53:26;5.97;;;4.07;;
12469;SDS011;36499;46.484;13.832;2023-01-29T02:56:06;7.10;;;4.63;;
12469;SDS011;36499;46.484;13.832;2023-01-29T02:58:40;7.33;;;5.47;;
12469;SDS011;36499;46.484;13.832;2023-01-29T03:01:15;7.00;;;5.17;;
12469;SDS011;36499;46.484;13.832;2023-01-29T03:03:55;8.77;;;5.60;;
12469;SDS011;36499;46.484;13.832;2023-01-29T03:06:30;7.00;;;4.93;;
12469;SDS011;36499;46.484;13.832;2023-01-29T03:09:03;8.13;;;4.97;;
12469;SDS011;36499;46.484;13.832;2023-01-29T03:11:35;9.63;;;6.37;;
12469;SDS011;36499;46.484;13.832;2023-01-29T03:14:11;10.80;;;7.33;;
12469;SDS011;36499;46.484;13.832;2023-01-29T03:16:46;20.60;;;12.67;;
12469;SDS011;36499;46.484;13.832;2023-01-29T03:19:18;25.60;;;13.73;;
12469;SDS011;36499;46.484;13.832;2023-01-29T03:21:56;29.63;;;16.47;;
12469;SDS011;36499;46.484;13.832;2023-01-29T03:24:32;34.67;;;18.40;;
12469;SDS011;36499;46.484;13.832;2023-01-29T03:27:23;33.20;;;18.43;;
12469;SDS011;36499;46.484;13.832;2023-01-29T03:30:15;37.70;;;19.73;;
12469;SDS011;36499;46.484;13.832;2023-01-29T03:33:04;35.30;;;18.93;;
12469;SDS011;36499;46.484;13.832;2023-01-29T03:35:36;34.50;;;19.53;;
12469;SDS011;36499;46.484;13.832;2023-01-29T03:38:12;34.73;;;19.63;;
12469;SDS011;36499;46.484;13.832;2023-01-29T03:40:42;34.57;;;20.10;;
12469;SDS011;36499;46.484;13.832;2023-01-29T03:43:20;34.47;;;19.40;;
12469;SDS011;36499;46.484;13.832;2023-01-29T03:46:02;35.80;;;19.20;;
12469;SDS011;36499;46.484;13.832;2023-01-29T03:48:37;36.37;;;21.13;;
12469;SDS011;36499;46.484;13.832;2023-01-29T03:51:16;30.43;;;18.43;;
12469;SDS011;36499;46.484;13.832;2023-01-29T03:53:56;35.40;;;20.43;;
12469;SDS011;36499;46.484;13.832;2023-01-29T03:56:36;36.17;;;19.60;;
12469;SDS011;36499;46.484;13.832;2023-01-29T03:59:22;32.13;;;19.27;;
12469;SDS011;36499;46.484;13.832;2023-01-29T04:02:03;38.20;;;21.00;;
12469;SDS011;36499;46.484;13.832;2023-01-29T04:04:37;35.83;;;19.97;;
12469;SDS011;36499;46.484;13.832;2023-01-29T04:07:09;36.40;;;19.50;;
12469;SDS011;36499;46.484;13.832;2023-01-29T04:09:44;31.37;;;18.77;;
12469;SDS011;36499;46.484;13.832;2023-01-29T04:12:18;32.43;;;18.37;;
12469;SDS011;36499;46.484;13.832;2023-01-29T04:14:51;36.37;;;20.17;;
12469;SDS011;36499;46.484;13.832;2023-01-29T04:17:22;36.77;;;20.13;;
12469;SDS011;36499;46.484;13.832;2023-01-29T04:19:59;37.43;;;20.23;;
12469;SDS011;36499;46.484;13.832;2023-01-29T04:22:29;34.43;;;19.33;;
12469;SDS011;36499;46.484;13.832;2023-01-29T04:24:59;38.13;;;21.17;;
12469;SDS011;36499;46.484;13.832;2023-01-29T04:27:36;34.63;;;19.37;;
12469;SDS011;36499;46.484;13.832;2023-01-29T04:30:18;32.63;;;18.93;;
12469;SDS011;36499;46.484;13.832;2023-01-29T04:33:02;36.37;;;21.00;;
12469;SDS011;36499;46.484;13.832;2023-01-29T04:35:41;33.20;;;19.47;;
12469;SDS011;36499;46.484;13.832;2023-01-29T04:38:33;41.83;;;20.23;;
12469;SDS011;36499;46.484;13.832;2023-01-29T04:41:15;33.80;;;18.97;;
12469;SDS011;36499;46.484;13.832;2023-01-29T04:43:55;34.87;;;19.40;;
12469;SDS011;36499;46.484;13.832;2023-01-29T04:46:34;35.43;;;19.87;;
12469;SDS011;36499;46.484;13.832;2023-01-29T04:49:16;33.40;;;19.43;;
12469;SDS011;36499;46.484;13.832;2023-01-29T04:51:57;38.50;;;20.97;;
12469;SDS011;36499;46.484;13.832;2023-01-29T04:54:38;38.77;;;20.83;;
12469;SDS011;36499;46.484;13.832;2023-01-29T04:57:21;34.27;;;21.53;;
12469;SDS011;36499;46.484;13.832;2023-01-29T04:59:56;39.17;;;20.60;;
12469;SDS011;36499;46.484;13.832;2023-01-29T05:02:31;41.23;;;20.73;;
12469;SDS011;36499;46.484;13.832;2023-01-29T05:05:03;37.93;;;21.27;;
12469;SDS011;36499;46.484;13.832;2023-01-29T05:07:34;37.23;;;19.60;;
12469;SDS011;36499;46.484;13.832;2023-01-29T05:10:03;36.90;;;20.73;;
12469;SDS011;36499;46.484;13.832;2023-01-29T05:12:35;38.50;;;20.77;;
12469;SDS011;36499;46.484;13.832;2023-01-29T05:15:05;39.43;;;20.90;;
12469;SDS011;36499;46.484;13.832;2023-01-29T05:17:40;41.13;;;21.63;;
12469;SDS011;36499;46.484;13.832;2023-01-29T05:20:09;36.10;;;20.17;;
12469;SDS011;36499;46.484;13.832;2023-01-29T05:22:40;36.10;;;20.43;;
12469;SDS011;36499;46.484;13.832;2023-01-29T05:25:12;43.07;;;23.10;;
12469;SDS011;36499;46.484;13.832;2023-01-29T05:27:48;39.23;;;23.20;;
12469;SDS011;36499;46.484;13.832;2023-01-29T05:30:32;37.83;;;20.70;;
12469;SDS011;36499;46.484;13.832;2023-01-29T05:33:02;35.33;;;20.10;;
12469;SDS011;36499;46.484;13.832;2023-01-29T05:35:36;42.70;;;20.90;;
12469;SDS011;36499;46.484;13.832;2023-01-29T05:38:04;39.33;;;21.10;;
12469;SDS011;36499;46.484;13.832;2023-01-29T05:40:32;40.87;;;21.57;;
12469;SDS011;36499;46.484;13.832;2023-01-29T05:42:59;41.03;;;21.57;;
12469;SDS011;36499;46.484;13.832;2023-01-29T05:45:26;41.20;;;21.80;;
12469;SDS011;36499;46.484;13.832;2023-01-29T05:47:54;42.83;;;23.80;;
12469;SDS011;36499;46.484;13.832;2023-01-29T05:50:22;41.00;;;22.03;;
12469;SDS011;36499;46.484;13.832;2023-01-29T05:52:54;39.00;;;21.63;;
12469;SDS011;36499;46.484;13.832;2023-01-29T05:55:24;40.67;;;21.83;;
12469;SDS011;36499;46.484;13.832;2023-01-29T05:57:51;39.10;;;21.40;;
12469;SDS011;36499;46.484;13.832;2023-01-29T06:00:18;35.33;;;21.73;;
12469;SDS011;36499;46.484;13.832;2023-01-29T06:02:46;39.27;;;22.70;;
12469;SDS011;36499;46.484;13.832;2023-01-29T06:05:13;32.03;;;19.50;;
12469;SDS011;36499;46.484;13.832;2023-01-29T06:07:40;37.20;;;21.20;;
12469;SDS011;36499;46.484;13.832;2023-01-29T06:10:10;38.47;;;20.33;;
12469;SDS011;36499;46.484;13.832;2023-01-29T06:12:39;36.97;;;20.43;;
12469;SDS011;36499;46.484;13.832;2023-01-29T06:15:07;35.43;;;19.73;;
12469;SDS011;36499;46.484;13.832;2023-01-29T06:17:36;52.67;;;26.03;;
12469;SDS011;36499;46.484;13.832;2023-01-29T06:20:03;163.97;;;70.57;;
12469;SDS011;36499;46.484;13.832;2023-01-29T06:22:32;52.03;;;26.23;;
12469;SDS011;36499;46.484;13.832;2023-01-29T06:24:59;38.37;;;20.93;;
12469;SDS011;36499;46.484;13.832;2023-01-29T06:27:26;36.50;;;20.77;;
12469;SDS011;36499;46.484;13.832;2023-01-29T06:29:54;36.13;;;19.23;;
12469;SDS011;36499;46.484;13.832;2023-01-29T06:32:22;38.27;;;20.93;;
12469;SDS011;36499;46.484;13.832;2023-01-29T06:34:49;35.07;;;20.47;;
12469;SDS011;36499;46.484;13.832;2023-01-29T06:37:17;36.80;;;20.10;;
12469;SDS011;36499;46.484;13.832;2023-01-29T06:39:44;39.70;;;21.13;;
12469;SDS011;36499;46.484;13.832;2023-01-29T06:42:11;43.17;;;24.13;;
12469;SDS011;36499;46.484;13.832;2023-01-29T06:44:38;37.73;;;22.10;;
12469;SDS011;36499;46.484;13.832;2023-01-29T06:47:06;38.67;;;22.47;;
12469;SDS011;36499;46.484;13.832;2023-01-29T06:49:33;36.67;;;20.83;;
12469;SDS011;36499;46.484;13.832;2023-01-29T06:52:00;39.97;;;22.27;;
12469;SDS011;36499;46.484;13.832;2023-01-29T06:54:27;40.67;;;21.20;;
12469;SDS011;36499;46.484;13.832;2023-01-29T06:56:54;34.87;;;19.93;;
12469;SDS011;36499;46.484;13.832;2023-01-29T06:59:21;37.97;;;22.10;;
12469;SDS011;36499;46.484;13.832;2023-01-29T07:01:48;42.03;;;22.50;;
12469;SDS011;36499;46.484;13.832;2023-01-29T07:04:17;37.60;;;21.93;;
12469;SDS011;36499;46.484;13.832;2023-01-29T07:06:44;36.73;;;21.20;;
12469;SDS011;36499;46.484;13.832;2023-01-29T07:09:11;35.67;;;20.80;;
12469;SDS011;36499;46.484;13.832;2023-01-29T07:11:39;37.17;;;20.27;;
12469;SDS011;36499;46.484;13.832;2023-01-29T07:14:06;31.00;;;18.37;;
12469;SDS011;36499;46.484;13.832;2023-01-29T07:16:33;36.43;;;20.77;;
12469;SDS011;36499;46.484;13.832;2023-01-29T07:19:00;35.13;;;20.70;;
12469;SDS011;36499;46.484;13.832;2023-01-29T07:21:29;46.10;;;22.23;;
12469;SDS011;36499;46.484;13.832;2023-01-29T07:23:56;36.33;;;22.77;;
12469;SDS011;36499;46.484;13.832;2023-01-29T07:26:23;36.27;;;22.23;;
12469;SDS011;36499;46.484;13.832;2023-01-29T07:28:50;38.77;;;21.07;;
12469;SDS011;36499;46.484;13.832;2023-01-29T07:31:17;40.17;;;22.83;;
12469;SDS011;36499;46.484;13.832;2023-01-29T07:33:44;40.07;;;23.10;;
12469;SDS011;36499;46.484;13.832;2023-01-29T07:36:11;43.33;;;23.40;;
12469;SDS011;36499;46.484;13.832;2023-01-29T07:38:41;36.97;;;21.10;;
12469;SDS011;36499;46.484;13.832;2023-01-29T07:41:08;39.90;;;21.87;;
12469;SDS011;36499;46.484;13.832;2023-01-29T07:43:36;38.30;;;22.00;;
12469;SDS011;36499;46.484;13.832;2023-01-29T07:46:04;38.03;;;21.97;;
12469;SDS011;36499;46.484;13.832;2023-01-29T07:48:31;37.97;;;19.87;;
12469;SDS011;36499;46.484;13.832;2023-01-29T07:50:58;37.77;;;19.97;;
12469;SDS011;36499;46.484;13.832;2023-01-29T07:53:26;35.83;;;20.67;;
12469;SDS011;36499;46.484;13.832;2023-01-29T07:55:55;36.37;;;19.53;;
12469;SDS011;36499;46.484;13.832;2023-01-29T07:58:22;36.33;;;19.80;;
12469;SDS011;36499;46.484;13.832;2023-01-29T08:00:49;33.93;;;18.93;;
12469;SDS011;36499;46.484;13.832;2023-01-29T08:03:17;30.73;;;17.97;;
12469;SDS011;36499;46.484;13.832;2023-01-29T08:05:45;34.33;;;19.40;;
12469;SDS011;36499;46.484;13.832;2023-01-29T08:08:13;32.17;;;19.13;;
12469;SDS011;36499;46.484;13.832;2023-01-29T08:10:40;32.90;;;18.47;;
12469;SDS011;36499;46.484;13.832;2023-01-29T08:13:09;32.57;;;18.47;;
12469;SDS011;36499;46.484;13.832;2023-01-29T08:15:36;30.87;;;17.70;;
12469;SDS011;36499;46.484;13.832;2023-01-29T08:18:03;33.87;;;18.83;;
12469;SDS011;36499;46.484;13.832;2023-01-29T08:20:31;34.90;;;18.97;;
12469;SDS011;36499;46.484;13.832;2023-01-29T08:22:59;31.97;;;18.07;;
12469;SDS011;36499;46.484;13.832;2023-01-29T08:25:27;28.93;;;17.07;;
12469;SDS011;36499;46.484;13.832;2023-01-29T08:27:55;24.63;;;14.90;;
12469;SDS011;36499;46.484;13.832;2023-01-29T08:30:24;28.40;;;14.03;;
12469;SDS011;36499;46.484;13.832;2023-01-29T08:32:52;29.50;;;14.70;;
12469;SDS011;36499;46.484;13.832;2023-01-29T08:35:19;25.77;;;14.80;;
12469;SDS011;36499;46.484;13.832;2023-01-29T08:37:53;27.53;;;15.03;;
12469;SDS011;36499;46.484;13.832;2023-01-29T08:40:23;24.83;;;14.47;;
12469;SDS011;36499;46.484;13.832;2023-01-29T08:42:50;25.67;;;14.37;;
12469;SDS011;36499;46.484;13.832;2023-01-29T08:45:17;22.70;;;14.10;;
12469;SDS011;36499;46.484;13.832;2023-01-29T08:47:46;24.17;;;13.80;;
12469;SDS011;36499;46.484;13.832;2023-01-29T08:50:14;24.97;;;14.10;;
12469;SDS011;36499;46.484;13.832;2023-01-29T08:52:42;20.97;;;13.07;;
12469;SDS011;36499;46.484;13.832;2023-01-29T08:55:11;25.90;;;14.50;;
12469;SDS011;36499;46.484;13.832;2023-01-29T08:57:38;24.23;;;13.77;;
12469;SDS011;36499;46.484;13.832;2023-01-29T09:00:06;23.43;;;12.37;;
12469;SDS011;36499;46.484;13.832;2023-01-29T09:02:36;21.57;;;13.07;;
12469;SDS011;36499;46.484;13.832;2023-01-29T09:05:05;25.70;;;14.43;;
12469;SDS011;36499;46.484;13.832;2023-01-29T09:07:34;22.00;;;13.43;;
12469;SDS011;36499;46.484;13.832;2023-01-29T09:10:01;20.03;;;11.83;;
12469;SDS011;36499;46.484;13.832;2023-01-29T09:12:29;19.70;;;11.50;;
12469;SDS011;36499;46.484;13.832;2023-01-29T09:14:56;22.07;;;12.10;;
12469;SDS011;36499;46.484;13.832;2023-01-29T09:17:23;20.70;;;11.90;;
12469;SDS011;36499;46.484;13.832;2023-01-29T09:19:50;19.17;;;11.70;;
12469;SDS011;36499;46.484;13.832;2023-01-29T09:22:18;18.57;;;11.60;;
12469;SDS011;36499;46.484;13.832;2023-01-29T09:24:46;16.77;;;10.37;;
12469;SDS011;36499;46.484;13.832;2023-01-29T09:27:13;15.47;;;9.40;;
12469;SDS011;36499;46.484;13.832;2023-01-29T09:29:40;14.27;;;8.27;;
12469;SDS011;36499;46.484;13.832;2023-01-29T09:32:07;12.13;;;7.87;;
12469;SDS011;36499;46.484;13.832;2023-01-29T09:34:34;17.00;;;9.53;;
12469;SDS011;36499;46.484;13.832;2023-01-29T09:37:01;11.77;;;7.50;;
12469;SDS011;36499;46.484;13.832;2023-01-29T09:39:30;10.33;;;6.50;;
12469;SDS011;36499;46.484;13.832;2023-01-29T09:41:58;10.00;;;6.33;;
12469;SDS011;36499;46.484;13.832;2023-01-29T09:44:39;7.57;;;5.10;;
12469;SDS011;36499;46.484;13.832;2023-01-29T09:47:25;6.10;;;4.47;;
12469;SDS011;36499;46.484;13.832;2023-01-29T09:49:55;7.33;;;4.93;;
12469;SDS011;36499;46.484;13.832;2023-01-29T09:52:27;13.77;;;8.73;;
12469;SDS011;36499;46.484;13.832;2023-01-29T09:55:03;19.90;;;9.37;;
12469;SDS011;36499;46.484;13.832;2023-01-29T09:57:40;14.37;;;8.43;;
12469;SDS011;36499;46.484;13.832;2023-01-29T10:00:15;13.53;;;8.27;;
12469;SDS011;36499;46.484;13.832;2023-01-29T10:02:57;11.40;;;7.73;;
12469;SDS011;36499;46.484;13.832;2023-01-29T10:05:49;12.03;;;6.43;;
12469;SDS011;36499;46.484;13.832;2023-01-29T10:08:35;10.40;;;7.00;;
12469;SDS011;36499;46.484;13.832;2023-01-29T10:11:28;16.63;;;8.27;;
12469;SDS011;36499;46.484;13.832;2023-01-29T10:14:12;12.03;;;8.30;;
12469;SDS011;36499;46.484;13.832;2023-01-29T10:16:53;15.37;;;9.40;;
12469;SDS011;36499;46.484;13.832;2023-01-29T10:19:40;16.10;;;8.87;;
12469;SDS011;36499;46.484;13.832;2023-01-29T10:22:34;12.23;;;8.00;;
12469;SDS011;36499;46.484;13.832;2023-01-29T10:25:22;13.77;;;8.10;;
12469;SDS011;36499;46.484;13.832;2023-01-29T10:27:52;15.60;;;9.93;;
12469;SDS011;36499;46.484;13.832;2023-01-29T10:30:28;15.20;;;8.50;;
12469;SDS011;36499;46.484;13.832;2023-01-29T10:33:00;14.33;;;8.40;;
12469;SDS011;36499;46.484;13.832;2023-01-29T10:35:32;13.83;;;7.97;;
12469;SDS011;36499;46.484;13.832;2023-01-29T10:38:11;14.50;;;8.73;;
12469;SDS011;36499;46.484;13.832;2023-01-29T10:40:52;14.97;;;9.00;;
12469;SDS011;36499;46.484;13.832;2023-01-29T10:43:32;12.00;;;8.13;;
12469;SDS011;36499;46.484;13.832;2023-01-29T10:46:18;12.13;;;7.63;;
12469;SDS011;36499;46.484;13.832;2023-01-29T10:49:04;11.43;;;8.17;;
12469;SDS011;36499;46.484;13.832;2023-01-29T10:51:51;16.87;;;9.83;;
12469;SDS011;36499;46.484;13.832;2023-01-29T10:54:42;13.27;;;8.63;;
12469;SDS011;36499;46.484;13.832;2023-01-29T10:57:37;13.43;;;8.37;;
12469;SDS011;36499;46.484;13.832;2023-01-29T11:00:25;13.83;;;9.20;;
12469;SDS011;36499;46.484;13.832;2023-01-29T11:02:59;13.53;;;8.30;;
12469;SDS011;36499;46.484;13.832;2023-01-29T11:05:42;14.53;;;8.27;;
12469;SDS011;36499;46.484;13.832;2023-01-29T11:08:20;12.87;;;8.77;;
12469;SDS011;36499;46.484;13.832;2023-01-29T11:10:53;11.97;;;7.83;;
12469;SDS011;36499;46.484;13.832;2023-01-29T11:13:33;11.30;;;8.20;;
12469;SDS011;36499;46.484;13.832;2023-01-29T11:16:09;12.93;;;7.83;;
12469;SDS011;36499;46.484;13.832;2023-01-29T11:18:49;10.77;;;7.00;;
12469;SDS011;36499;46.484;13.832;2023-01-29T11:21:21;17.33;;;8.13;;
12469;SDS011;36499;46.484;13.832;2023-01-29T11:23:49;12.13;;;8.37;;
12469;SDS011;36499;46.484;13.832;2023-01-29T11:26:32;15.73;;;10.07;;
12469;SDS011;36499;46.484;13.832;2023-01-29T11:29:20;12.33;;;8.60;;
12469;SDS011;36499;46.484;13.832;2023-01-29T11:32:02;13.60;;;8.80;;
12469;SDS011;36499;46.484;13.832;2023-01-29T11:34:32;13.63;;;9.23;;
12469;SDS011;36499;46.484;13.832;2023-01-29T11:37:00;15.27;;;9.60;;
12469;SDS011;36499;46.484;13.832;2023-01-29T11:39:29;15.90;;;9.43;;
12469;SDS011;36499;46.484;13.832;2023-01-29T11:41:58;14.93;;;9.70;;
12469;SDS011;36499;46.484;13.832;2023-01-29T11:44:31;16.50;;;10.30;;
12469;SDS011;36499;46.484;13.832;2023-01-29T11:47:10;15.00;;;10.20;;
12469;SDS011;36499;46.484;13.832;2023-01-29T11:49:44;14.97;;;10.07;;
12469;SDS011;36499;46.484;13.832;2023-01-29T11:52:15;17.77;;;10.70;;
12469;SDS011;36499;46.484;13.832;2023-01-29T11:54:46;16.07;;;10.00;;
12469;SDS011;36499;46.484;13.832;2023-01-29T11:57:21;15.67;;;9.73;;
12469;SDS011;36499;46.484;13.832;2023-01-29T11:59:56;15.20;;;9.70;;
12469;SDS011;36499;46.484;13.832;2023-01-29T12:02:31;13.37;;;9.27;;
12469;SDS011;36499;46.484;13.832;2023-01-29T12:05:03;14.90;;;9.03;;
12469;SDS011;36499;46.484;13.832;2023-01-29T12:07:40;13.63;;;8.23;;
12469;SDS011;36499;46.484;13.832;2023-01-29T12:13:02;13.53;;;8.07;;
12469;SDS011;36499;46.484;13.832;2023-01-29T12:15:31;12.50;;;8.30;;
12469;SDS011;36499;46.484;13.832;2023-01-29T12:18:02;10.57;;;7.33;;
12469;SDS011;36499;46.484;13.832;2023-01-29T12:20:38;9.63;;;6.87;;
12469;SDS011;36499;46.484;13.832;2023-01-29T12:23:13;11.57;;;6.97;;
12469;SDS011;36499;46.484;13.832;2023-01-29T12:25:53;11.70;;;7.30;;
12469;SDS011;36499;46.484;13.832;2023-01-29T12:28:30;10.13;;;6.70;;
12469;SDS011;36499;46.484;13.832;2023-01-29T12:31:14;13.57;;;6.47;;
12469;SDS011;36499;46.484;13.832;2023-01-29T12:33:57;10.50;;;6.37;;
12469;SDS011;36499;46.484;13.832;2023-01-29T12:36:33;8.67;;;6.13;;
12469;SDS011;36499;46.484;13.832;2023-01-29T12:39:07;10.47;;;5.43;;
12469;SDS011;36499;46.484;13.832;2023-01-29T12:41:41;8.23;;;5.20;;
12469;SDS011;36499;46.484;13.832;2023-01-29T12:44:13;9.73;;;6.20;;
12469;SDS011;36499;46.484;13.832;2023-01-29T12:46:46;9.57;;;5.97;;
12469;SDS011;36499;46.484;13.832;2023-01-29T12:49:22;9.20;;;6.40;;
12469;SDS011;36499;46.484;13.832;2023-01-29T12:51:56;13.60;;;7.93;;
12469;SDS011;36499;46.484;13.832;2023-01-29T12:54:31;10.27;;;6.50;;
12469;SDS011;36499;46.484;13.832;2023-01-29T12:57:06;13.07;;;7.40;;
12469;SDS011;36499;46.484;13.832;2023-01-29T12:59:46;3.37;;;2.57;;
12469;SDS011;36499;46.484;13.832;2023-01-29T13:02:29;2.00;;;1.50;;
12469;SDS011;36499;46.484;13.832;2023-01-29T13:05:04;1.80;;;1.30;;
12469;SDS011;36499;46.484;13.832;2023-01-29T13:07:45;1.10;;;1.00;;
12469;SDS011;36499;46.484;13.832;2023-01-29T13:10:17;2.13;;;1.50;;
12469;SDS011;36499;46.484;13.832;2023-01-29T13:12:53;2.00;;;1.50;;
12469;SDS011;36499;46.484;13.832;2023-01-29T13:15:30;7.50;;;5.37;;
12469;SDS011;36499;46.484;13.832;2023-01-29T13:18:07;11.20;;;6.17;;
12469;SDS011;36499;46.484;13.832;2023-01-29T13:21:07;17.33;;;10.60;;
12469;SDS011;36499;46.484;13.832;2023-01-29T13:23:42;18.47;;;11.03;;
12469;SDS011;36499;46.484;13.832;2023-01-29T13:26:12;16.90;;;10.20;;
12469;SDS011;36499;46.484;13.832;2023-01-29T13:28:44;11.73;;;5.93;;
12469;SDS011;36499;46.484;13.832;2023-01-29T13:31:26;3.33;;;2.40;;
12469;SDS011;36499;46.484;13.832;2023-01-29T13:34:07;3.47;;;2.43;;
12469;SDS011;36499;46.484;13.832;2023-01-29T13:36:42;12.63;;;7.03;;
12469;SDS011;36499;46.484;13.832;2023-01-29T13:39:18;20.70;;;13.90;;
12469;SDS011;36499;46.484;13.832;2023-01-29T13:41:54;14.03;;;9.33;;
12469;SDS011;36499;46.484;13.832;2023-01-29T13:44:24;15.20;;;10.43;;
12469;SDS011;36499;46.484;13.832;2023-01-29T13:46:55;21.10;;;14.10;;
12469;SDS011;36499;46.484;13.832;2023-01-29T13:49:27;24.07;;;16.07;;
12469;SDS011;36499;46.484;13.832;2023-01-29T13:52:20;18.67;;;11.60;;
12469;SDS011;36499;46.484;13.832;2023-01-29T13:54:56;26.80;;;16.77;;
12469;SDS011;36499;46.484;13.832;2023-01-29T14:06:39;17.50;;;10.63;;
12469;SDS011;36499;46.484;13.832;2023-01-29T14:12:42;25.70;;;15.33;;
12469;SDS011;36499;46.484;13.832;2023-01-29T14:15:21;26.13;;;14.57;;
12469;SDS011;36499;46.484;13.832;2023-01-29T14:17:53;24.10;;;13.77;;
12469;SDS011;36499;46.484;13.832;2023-01-29T14:20:50;24.07;;;14.37;;
12469;SDS011;36499;46.484;13.832;2023-01-29T14:23:27;30.43;;;18.50;;
12469;SDS011;36499;46.484;13.832;2023-01-29T14:29:17;21.27;;;11.97;;
12469;SDS011;36499;46.484;13.832;2023-01-29T14:31:51;21.63;;;11.23;;
12469;SDS011;36499;46.484;13.832;2023-01-29T14:34:25;20.50;;;11.47;;
12469;SDS011;36499;46.484;13.832;2023-01-29T14:36:57;21.33;;;11.90;;
12469;SDS011;36499;46.484;13.832;2023-01-29T14:39:41;26.20;;;14.97;;
12469;SDS011;36499;46.484;13.832;2023-01-29T14:42:15;26.93;;;15.90;;
12469;SDS011;36499;46.484;13.832;2023-01-29T14:47:54;24.47;;;14.07;;
12469;SDS011;36499;46.484;13.832;2023-01-29T14:50:45;25.70;;;13.73;;
12469;SDS011;36499;46.484;13.832;2023-01-29T14:53:26;23.13;;;12.70;;
12469;SDS011;36499;46.484;13.832;2023-01-29T14:56:25;19.47;;;11.33;;
12469;SDS011;36499;46.484;13.832;2023-01-29T14:59:02;21.13;;;11.13;;
12469;SDS011;36499;46.484;13.832;2023-01-29T15:01:45;18.73;;;9.97;;
12469;SDS011;36499;46.484;13.832;2023-01-29T15:04:19;18.10;;;9.53;;
12469;SDS011;36499;46.484;13.832;2023-01-29T15:06:54;15.13;;;9.33;;
12469;SDS011;36499;46.484;13.832;2023-01-29T15:09:33;18.77;;;9.87;;
12469;SDS011;36499;46.484;13.832;2023-01-29T15:12:13;15.07;;;9.20;;
12469;SDS011;36499;46.484;13.832;2023-01-29T15:14:58;12.63;;;7.37;;
12469;SDS011;36499;46.484;13.832;2023-01-29T15:17:36;8.93;;;4.57;;
12469;SDS011;36499;46.484;13.832;2023-01-29T15:20:28;7.13;;;4.47;;